createdAt,value
2019-04-23T00:00:45.611Z,55.99
2019-04-23T00:01:54.383Z,56.09
2019-04-23T00:02:53.460Z,55.87
2019-04-23T00:03:46.998Z,55.61
2019-04-23T00:04:45.277Z,55.32
2019-04-23T00:05:48.215Z,55.40
2019-04-23T00:07:03.508Z,55.61
2019-04-23T00:07:49.867Z,56.63
2019-04-23T00:08:49.709Z,56.25
2019-04-23T00:09:47.083Z,56.54
2019-04-23T00:10:45.962Z,56.54
2019-04-23T00:11:45.866Z,55.77
2019-04-23T00:14:55.034Z,55.96
2019-04-23T00:15:51.936Z,56.54
2019-04-23T00:16:44.056Z,56.35
2019-04-23T00:19:50.228Z,56.54
2019-04-23T00:20:47.770Z,56.73
2019-04-23T00:21:45.897Z,56.82
2019-04-23T00:22:53.272Z,56.73
2019-04-23T00:23:52.997Z,56.63
2019-04-23T00:25:12.185Z,56.73
2019-04-23T00:25:53.752Z,56.45
2019-04-23T00:26:44.980Z,57.50
2019-04-23T00:28:54.222Z,57.31
2019-04-23T00:29:53.783Z,57.78
2019-04-23T00:30:50.229Z,57.59
2019-04-23T00:31:44.567Z,57.50
2019-04-23T00:32:51.622Z,57.40
2019-04-23T00:33:43.688Z,57.50
2019-04-23T00:34:47.985Z,57.78
2019-04-23T00:35:43.968Z,57.21
2019-04-23T00:36:47.684Z,57.31
2019-04-23T00:37:40.366Z,56.73
2019-04-23T00:38:44.759Z,57.31
2019-04-23T00:40:46.765Z,57.59
2019-04-23T00:41:44.176Z,57.40
2019-04-23T00:43:51.356Z,57.68
2019-04-23T00:44:47.902Z,57.21
2019-04-23T00:45:44.482Z,57.68
2019-04-23T00:46:50.696Z,57.50
2019-04-23T00:47:48.522Z,57.59
2019-04-23T00:48:51.556Z,58.04
2019-04-23T00:49:53.276Z,57.78
2019-04-23T00:50:52.988Z,57.97
2019-04-23T00:51:42.651Z,57.97
2019-04-23T00:52:46.188Z,57.40
2019-04-23T00:53:47.586Z,57.40
2019-04-23T00:54:48.829Z,57.50
2019-04-23T00:55:46.622Z,57.50
2019-04-23T00:56:46.199Z,58.16
2019-04-23T00:57:43.965Z,57.50
2019-04-23T00:59:55.874Z,58.42
2019-04-23T01:00:45.935Z,58.07
2019-04-23T01:02:48.282Z,58.33
2019-04-23T01:03:47.302Z,58.23
2019-04-23T01:04:47.654Z,58.33
2019-04-23T01:05:45.447Z,58.14
2019-04-23T01:06:47.748Z,58.51
2019-04-23T01:07:44.468Z,58.51
2019-04-23T01:08:45.751Z,58.33
2019-04-23T01:09:45.797Z,58.70
2019-04-23T01:10:51.142Z,58.70
2019-04-23T01:11:46.690Z,58.80
2019-04-23T01:12:51.699Z,59.38
2019-04-23T01:14:38.535Z,58.99
2019-04-23T01:15:45.912Z,58.90
2019-04-23T01:17:05.222Z,58.90
2019-04-23T01:17:49.311Z,58.90
2019-04-23T01:19:45.075Z,59.47
2019-04-23T01:20:44.513Z,59.38
2019-04-23T01:21:24.396Z,59.19
2019-04-23T01:22:23.249Z,58.99
2019-04-23T01:23:28.598Z,59.19
2019-04-23T01:24:25.911Z,59.76
2019-04-23T01:25:34.127Z,60.04
2019-04-23T01:26:42.138Z,59.28
2019-04-23T01:27:51.656Z,59.95
2019-04-23T01:28:49.717Z,59.76
2019-04-23T01:29:50.699Z,59.47
2019-04-23T01:30:53.002Z,59.95
2019-04-23T01:31:58.892Z,59.76
2019-04-23T01:32:48.456Z,59.95
2019-04-23T01:34:11.027Z,60.14
2019-04-23T01:34:58.953Z,60.52
2019-04-23T01:36:05.885Z,61.19
2019-04-23T01:36:48.754Z,60.24
2019-04-23T01:37:49.313Z,60.04
2019-04-23T01:39:52.901Z,60.90
2019-04-23T01:41:01.747Z,61.44
2019-04-23T01:42:45.011Z,61.16
2019-04-23T01:43:47.817Z,61.35
2019-04-23T01:44:54.110Z,61.16
2019-04-23T01:45:47.905Z,61.35
2019-04-23T01:46:51.003Z,61.25
2019-04-23T01:47:50.015Z,61.16
2019-04-23T01:49:58.192Z,61.83
2019-04-23T01:50:58.870Z,61.73
2019-04-23T01:52:52.391Z,62.21
2019-04-23T01:54:52.361Z,62.78
2019-04-23T01:55:46.819Z,62.97
2019-04-23T01:56:50.999Z,62.88
2019-04-23T01:57:58.887Z,62.94
2019-04-23T01:59:55.456Z,62.37
2019-04-23T02:00:47.819Z,62.94
2019-04-23T02:01:50.425Z,62.56
2019-04-23T02:04:58.431Z,62.37
2019-04-23T02:05:48.367Z,62.40
2019-04-23T02:06:52.767Z,62.40
2019-04-23T02:07:53.721Z,62.88
2019-04-23T02:09:48.330Z,62.49
2019-04-23T02:12:06.655Z,62.21
2019-04-23T02:13:51.629Z,62.97
2019-04-23T02:14:50.412Z,62.49
2019-04-23T02:15:47.402Z,63.51
2019-04-23T02:16:50.047Z,63.32
2019-04-23T02:17:53.727Z,63.80
2019-04-23T02:18:50.749Z,63.60
2019-04-23T02:19:51.836Z,63.80
2019-04-23T02:20:48.046Z,64.28
2019-04-23T02:21:52.882Z,64.85
2019-04-23T02:23:01.723Z,65.33
2019-04-23T02:23:50.301Z,65.33
2019-04-23T02:24:49.253Z,65.70
2019-04-23T02:25:52.153Z,65.70
2019-04-23T02:26:50.455Z,64.94
2019-04-23T02:27:55.485Z,65.04
2019-04-23T02:30:08.547Z,65.33
2019-04-23T02:31:57.617Z,65.61
2019-04-23T02:33:10.651Z,66.75
2019-04-23T02:34:09.696Z,66.18
2019-04-23T02:35:02.371Z,65.99
2019-04-23T02:36:54.472Z,66.75
2019-04-23T02:38:03.466Z,67.23
2019-04-23T02:39:57.375Z,66.85
2019-04-23T02:43:06.851Z,67.10
2019-04-23T02:43:59.350Z,67.00
2019-04-23T02:44:53.863Z,66.94
2019-04-23T02:47:03.475Z,66.28
2019-04-23T02:48:03.387Z,66.09
2019-04-23T02:48:59.247Z,66.18
2019-04-23T02:50:12.742Z,66.38
2019-04-23T02:52:57.793Z,65.70
2019-04-23T02:54:21.490Z,65.52
2019-04-23T02:56:51.061Z,65.89
2019-04-23T02:57:54.303Z,65.70
2019-04-23T03:00:11.583Z,66.56
2019-04-23T03:01:15.052Z,66.75
2019-04-23T03:03:04.021Z,66.66
2019-04-23T03:06:12.781Z,66.28
2019-04-23T03:06:55.581Z,66.09
2019-04-23T03:09:53.834Z,66.85
2019-04-23T03:10:59.743Z,66.66
2019-04-23T03:14:07.472Z,67.20
2019-04-23T03:15:00.760Z,67.33
2019-04-23T03:16:03.785Z,67.04
2019-04-23T03:17:59.341Z,67.68
2019-04-23T03:18:53.744Z,67.00
2019-04-23T03:19:58.587Z,68.44
2019-04-23T03:21:07.498Z,68.05
2019-04-23T03:23:10.093Z,68.53
2019-04-23T03:24:55.460Z,68.63
2019-04-23T03:26:15.630Z,68.63
2019-04-23T03:27:50.984Z,68.91
2019-04-23T03:28:57.834Z,69.01
2019-04-23T03:34:34.102Z,68.24
2019-04-23T03:37:58.550Z,68.38
2019-04-23T03:41:02.485Z,67.61
2019-04-23T03:41:53.544Z,67.61
2019-04-23T03:42:57.662Z,68.57
2019-04-23T03:44:57.740Z,67.99
2019-04-23T03:46:55.339Z,67.42
2019-04-23T03:49:55.086Z,68.09
2019-04-23T03:51:01.325Z,68.28
2019-04-23T03:52:23.249Z,67.80
2019-04-23T03:52:44.781Z,67.90
2019-04-23T03:55:56.252Z,68.38
2019-04-23T03:59:55.037Z,68.57
2019-04-23T04:02:20.436Z,68.18
2019-04-23T04:03:02.193Z,67.99
2019-04-23T04:04:45.133Z,68.09
2019-04-23T04:06:03.415Z,68.66
2019-04-23T04:08:58.333Z,68.47
2019-04-23T04:09:51.918Z,68.47
2019-04-23T04:11:11.222Z,68.91
2019-04-23T04:11:45.054Z,68.82
2019-04-23T04:13:06.677Z,68.66
2019-04-23T04:14:04.793Z,68.66
2019-04-23T04:14:56.786Z,67.99
2019-04-23T06:30:56.073Z,56.93
2019-04-23T06:32:55.237Z,55.64
2019-04-23T06:33:59.216Z,54.90
2019-04-23T06:34:54.682Z,54.68
2019-04-23T06:35:54.856Z,54.30
2019-04-23T06:36:50.979Z,54.37
2019-04-23T06:38:12.483Z,55.04
2019-04-23T06:39:02.764Z,55.42
2019-04-23T06:40:58.703Z,55.04
2019-04-23T06:42:53.140Z,55.07
2019-04-23T06:43:58.423Z,54.49
2019-04-23T06:44:51.702Z,54.27
2019-04-23T06:45:49.218Z,55.30
2019-04-23T06:47:56.369Z,56.81
2019-04-23T06:48:46.987Z,56.52
2019-04-23T06:49:54.523Z,57.95
2019-04-23T06:51:00.795Z,57.83
2019-04-23T06:52:02.420Z,58.50
2019-04-23T06:52:50.163Z,59.52
2019-04-23T06:53:49.826Z,60.32
2019-04-23T06:54:56.175Z,60.22
2019-04-23T06:57:00.584Z,60.99
2019-04-23T06:57:48.284Z,60.70
2019-04-23T06:58:48.971Z,60.22
2019-04-23T06:59:52.687Z,59.94
2019-04-23T07:00:55.458Z,60.32
2019-04-23T07:01:59.665Z,60.13
2019-04-23T07:02:58.273Z,59.45
2019-04-23T07:03:55.755Z,59.08
2019-04-23T07:04:58.663Z,58.50
2019-04-23T07:06:03.675Z,59.45
2019-04-23T07:07:52.826Z,58.98
2019-04-23T07:10:52.052Z,57.50
2019-04-23T07:11:47.875Z,56.74
2019-04-23T07:13:03.655Z,56.35
2019-04-23T07:13:57.693Z,56.00
2019-04-23T07:15:55.251Z,55.80
2019-04-23T07:16:52.711Z,55.93
2019-04-23T07:17:51.595Z,55.35
2019-04-23T07:19:48.345Z,54.33
2019-04-23T07:20:50.464Z,54.68
2019-04-23T07:21:51.313Z,55.74
2019-04-23T07:22:59.600Z,56.00
2019-04-23T07:24:52.974Z,57.03
2019-04-23T07:25:59.380Z,56.81
2019-04-23T07:26:42.499Z,57.79
2019-04-23T07:27:49.252Z,57.95
2019-04-23T07:28:53.260Z,59.20
2019-04-23T07:29:56.782Z,58.62
2019-04-23T07:30:55.908Z,58.72
2019-04-23T07:31:54.692Z,58.72
2019-04-23T07:32:52.875Z,59.39
2019-04-23T07:34:59.197Z,59.61
2019-04-23T07:35:51.887Z,58.94
2019-04-23T07:36:48.014Z,59.61
2019-04-23T07:37:54.540Z,58.46
2019-04-23T07:39:01.561Z,58.56
2019-04-23T07:40:07.649Z,59.52
2019-04-23T07:40:46.717Z,57.70
2019-04-23T07:41:56.353Z,57.79
2019-04-23T07:42:52.724Z,57.79
2019-04-23T07:43:54.790Z,58.46
2019-04-23T07:45:57.587Z,58.46
2019-04-23T07:47:05.338Z,59.11
2019-04-23T07:48:03.485Z,59.30
2019-04-23T07:48:48.000Z,59.68
2019-04-23T07:50:00.715Z,59.30
2019-04-23T07:50:52.819Z,59.39
2019-04-23T07:51:54.024Z,59.30
2019-04-23T07:52:58.668Z,59.58
2019-04-23T07:53:53.552Z,59.48
2019-04-23T07:54:58.761Z,59.11
2019-04-23T07:56:53.376Z,59.68
2019-04-23T07:57:59.778Z,60.06
2019-04-23T07:58:46.377Z,59.58
2019-04-23T07:59:56.269Z,59.20
2019-04-23T08:01:52.436Z,59.39
2019-04-23T08:03:01.078Z,59.97
2019-04-23T08:03:57.680Z,59.39
2019-04-23T08:05:44.111Z,60.16
2019-04-23T08:06:52.567Z,59.71
2019-04-23T08:07:52.986Z,59.52
2019-04-23T08:08:50.569Z,60.09
2019-04-23T08:09:53.206Z,59.33
2019-04-23T08:11:03.046Z,59.64
2019-04-23T08:11:54.301Z,59.64
2019-04-23T08:12:54.754Z,59.36
2019-04-23T08:14:00.439Z,58.69
2019-04-23T08:14:55.291Z,59.36
2019-04-23T08:15:47.632Z,59.16
2019-04-23T08:16:48.544Z,58.59
2019-04-23T08:17:53.085Z,57.82
2019-04-23T08:19:57.592Z,58.49
2019-04-23T08:20:57.097Z,58.78
2019-04-23T08:21:58.201Z,59.36
2019-04-23T08:22:57.308Z,58.87
2019-04-23T08:23:56.953Z,58.71
2019-04-23T08:24:55.563Z,57.95
2019-04-23T08:26:03.277Z,57.95
2019-04-23T08:26:55.247Z,58.14
2019-04-23T08:27:48.617Z,59.22
2019-04-23T08:28:59.604Z,57.88
2019-04-23T08:29:58.839Z,57.97
2019-04-23T08:30:52.752Z,57.88
2019-04-23T08:31:52.765Z,56.92
2019-04-23T08:32:55.448Z,57.30
2019-04-23T08:33:57.492Z,56.92
2019-04-23T08:34:56.427Z,56.82
2019-04-23T08:35:55.745Z,56.92
2019-04-23T08:38:50.848Z,56.92
2019-04-23T08:39:48.051Z,56.73
2019-04-23T08:41:03.954Z,56.92
2019-04-23T08:43:08.957Z,56.73
2019-04-23T08:44:03.464Z,57.04
2019-04-23T08:44:57.032Z,56.15
2019-04-23T08:45:46.318Z,56.44
2019-04-23T08:46:56.809Z,56.24
2019-04-23T08:47:56.539Z,56.85
2019-04-23T08:49:03.307Z,56.08
2019-04-23T08:49:47.192Z,56.95
2019-04-23T08:53:00.176Z,56.21
2019-04-23T08:53:51.303Z,56.18
2019-04-23T08:54:51.968Z,54.83
2019-04-23T08:56:03.698Z,54.93
2019-04-23T08:56:55.157Z,55.41
2019-04-23T08:57:43.771Z,55.99
2019-04-23T08:58:49.032Z,55.73
2019-04-23T09:00:52.660Z,55.53
2019-04-23T09:02:07.174Z,55.15
2019-04-23T09:02:53.290Z,56.11
2019-04-23T09:03:47.796Z,55.91
2019-04-23T09:04:55.412Z,55.91
2019-04-23T09:05:55.988Z,55.91
2019-04-23T09:06:53.161Z,55.73
2019-04-23T09:09:10.424Z,55.73
2019-04-23T09:09:57.829Z,55.44
2019-04-23T09:10:55.948Z,56.04
2019-04-23T09:11:54.317Z,55.37
2019-04-23T09:12:58.749Z,55.76
2019-04-23T09:14:51.049Z,55.27
2019-04-23T09:15:49.929Z,54.96
2019-04-23T09:16:50.983Z,55.63
2019-04-23T09:18:47.220Z,55.91
2019-04-23T09:20:07.076Z,56.98
2019-04-23T09:20:41.143Z,56.98
2019-04-23T09:21:50.357Z,56.88
2019-04-23T09:22:42.191Z,56.01
2019-04-23T09:24:55.513Z,56.14
2019-04-23T09:26:51.679Z,56.14
2019-04-23T09:27:47.083Z,55.18
2019-04-23T09:28:51.886Z,55.27
2019-04-23T09:32:47.296Z,55.76
2019-04-23T09:35:48.704Z,55.08
2019-04-23T09:36:49.156Z,55.27
2019-04-23T09:38:52.516Z,56.33
2019-04-23T09:39:49.749Z,56.04
2019-04-23T09:41:04.026Z,57.00
2019-04-23T09:41:48.200Z,56.16
2019-04-23T09:43:00.624Z,54.99
2019-04-23T09:43:57.755Z,55.27
2019-04-23T09:45:51.993Z,56.16
2019-04-23T09:46:53.183Z,55.78
2019-04-23T09:47:50.496Z,55.88
2019-04-23T09:48:50.953Z,55.59
2019-04-23T09:49:50.175Z,54.99
2019-04-23T09:50:56.994Z,54.60
2019-04-23T09:51:59.373Z,54.50
2019-04-23T09:53:01.846Z,55.18
2019-04-23T09:53:50.401Z,55.37
2019-04-23T09:54:58.592Z,55.15
2019-04-23T09:55:41.924Z,56.52
2019-04-23T09:56:49.522Z,55.66
2019-04-23T09:57:55.495Z,55.56
2019-04-23T09:58:52.541Z,55.27
2019-04-23T09:59:53.057Z,54.99
2019-04-23T10:00:44.967Z,55.98
2019-04-23T10:01:40.950Z,55.88
2019-04-23T10:02:41.196Z,55.59
2019-04-23T10:03:39.037Z,55.30
2019-04-23T10:04:39.810Z,54.72
2019-04-23T10:05:30.964Z,54.63
2019-04-23T10:06:26.584Z,55.20
2019-04-23T10:07:34.860Z,55.49
2019-04-23T10:08:31.222Z,56.00
2019-04-23T10:09:23.869Z,55.23
2019-04-23T10:10:22.710Z,55.40
2019-04-23T10:11:22.368Z,54.75
2019-04-23T10:12:22.178Z,54.72
2019-04-23T10:13:22.118Z,54.72
2019-04-23T10:14:22.109Z,54.65
2019-04-23T10:15:26.721Z,54.85
2019-04-23T10:16:25.686Z,55.11
2019-04-23T10:17:22.284Z,56.16
2019-04-23T10:18:22.436Z,55.33
2019-04-23T10:19:22.591Z,54.94
2019-04-23T10:20:22.544Z,55.13
2019-04-23T10:21:23.626Z,54.75
2019-04-23T10:22:23.059Z,55.90
2019-04-23T10:23:23.194Z,55.43
2019-04-23T10:24:23.278Z,54.75
2019-04-23T10:25:22.826Z,54.85
2019-04-23T10:26:21.989Z,55.13
2019-04-23T10:27:23.275Z,54.17
2019-04-23T10:28:22.999Z,54.27
2019-04-23T10:29:23.598Z,54.20
2019-04-23T10:30:21.897Z,54.10
2019-04-23T10:31:22.897Z,54.46
2019-04-23T10:32:21.915Z,55.45
2019-04-23T10:33:23.417Z,54.75
2019-04-23T10:34:23.271Z,55.04
2019-04-23T10:35:33.852Z,54.36
2019-04-23T10:36:25.478Z,54.75
2019-04-23T10:37:34.224Z,54.27
2019-04-23T10:38:22.565Z,53.98
2019-04-23T10:39:26.305Z,54.94
2019-04-23T10:40:28.145Z,54.94
2019-04-23T10:41:22.535Z,55.13
2019-04-23T10:42:21.958Z,54.75
2019-04-23T10:43:22.638Z,54.30
2019-04-23T10:44:23.516Z,54.49
2019-04-23T10:45:34.873Z,55.35
2019-04-23T10:46:43.594Z,54.49
2019-04-23T10:47:59.451Z,54.39
2019-04-23T10:48:49.624Z,53.14
2019-04-23T10:49:53.524Z,53.62
2019-04-23T10:52:02.283Z,54.32
2019-04-23T10:52:53.711Z,53.94
2019-04-23T10:53:52.060Z,54.52
2019-04-23T10:54:45.153Z,53.36
2019-04-23T10:57:45.860Z,52.23
2019-04-23T10:58:47.524Z,51.75
2019-04-23T11:00:53.542Z,51.94
2019-04-23T11:01:56.165Z,51.46
2019-04-23T11:02:51.335Z,51.84
2019-04-23T11:05:59.022Z,51.65
2019-04-23T11:06:50.122Z,51.56
2019-04-23T11:07:47.222Z,51.36
2019-04-23T11:08:50.577Z,51.24
2019-04-23T11:09:55.605Z,52.30
2019-04-23T11:10:50.423Z,52.66
2019-04-23T11:11:56.635Z,52.75
2019-04-23T11:13:53.531Z,52.97
2019-04-23T11:18:56.653Z,50.32
2019-04-23T11:19:58.223Z,50.26
2019-04-23T11:21:58.226Z,49.87
2019-04-23T11:22:48.242Z,49.02
2019-04-23T11:24:12.702Z,49.27
2019-04-23T11:24:48.387Z,50.62
2019-04-23T11:25:44.831Z,51.05
2019-04-23T11:26:51.520Z,49.92
2019-04-23T11:27:59.753Z,49.53
2019-04-23T11:28:44.864Z,49.15
2019-04-23T11:29:48.593Z,49.02
2019-04-23T11:31:03.511Z,48.61
2019-04-23T11:31:57.109Z,49.51
2019-04-23T11:33:59.450Z,50.26
2019-04-23T11:36:06.260Z,50.78
2019-04-23T11:38:11.882Z,52.13
2019-04-23T11:38:56.163Z,51.75
2019-04-23T11:39:55.826Z,51.39
2019-04-23T11:40:42.166Z,50.71
2019-04-23T11:43:46.523Z,49.99
2019-04-23T11:44:56.164Z,48.86
2019-04-23T11:49:10.210Z,49.00
2019-04-23T11:51:30.271Z,49.92
2019-04-23T11:53:07.392Z,49.70
2019-04-23T11:53:47.949Z,49.32
2019-04-23T11:54:53.022Z,48.95
2019-04-23T11:57:27.259Z,48.32
2019-04-23T11:57:59.185Z,48.52
2019-04-23T11:58:49.243Z,47.99
2019-04-23T12:00:10.879Z,49.70
2019-04-23T12:01:18.369Z,49.19
2019-04-23T12:01:52.195Z,50.09
2019-04-23T12:03:57.353Z,49.68
2019-04-23T12:04:59.219Z,50.32
2019-04-23T12:05:52.314Z,50.90
2019-04-23T12:06:52.824Z,50.90
2019-04-23T12:07:53.777Z,51.20
2019-04-23T12:10:20.032Z,51.05
2019-04-23T12:11:08.432Z,51.15
2019-04-23T12:12:00.081Z,50.96
2019-04-23T12:12:49.540Z,50.86
2019-04-23T12:13:56.672Z,50.16
2019-04-23T12:15:07.262Z,51.82
2019-04-23T12:15:53.507Z,50.31
2019-04-23T12:17:05.537Z,51.07
2019-04-23T12:19:04.632Z,50.52
2019-04-23T12:19:57.791Z,49.27
2019-04-23T12:20:46.288Z,48.71
2019-04-23T12:21:58.294Z,47.53
2019-04-23T12:23:01.070Z,48.37
2019-04-23T12:25:09.409Z,49.46
2019-04-23T12:26:53.892Z,49.15
2019-04-23T12:27:38.627Z,49.24
2019-04-23T12:28:53.616Z,49.32
2019-04-23T12:29:52.668Z,49.41
2019-04-23T12:31:47.263Z,49.10
2019-04-23T12:32:56.616Z,48.08
2019-04-23T12:33:51.370Z,48.11
2019-04-23T12:35:04.386Z,47.84
2019-04-23T12:35:43.926Z,47.55
2019-04-23T12:36:46.878Z,48.18
2019-04-23T12:37:49.381Z,48.69
2019-04-23T12:38:51.974Z,48.11
2019-04-23T12:39:49.794Z,48.21
2019-04-23T12:40:44.287Z,48.39
2019-04-23T12:41:51.185Z,48.21
2019-04-23T12:43:04.067Z,48.11
2019-04-23T12:43:48.542Z,48.32
2019-04-23T12:44:56.424Z,46.83
2019-04-23T12:45:42.275Z,45.86
2019-04-23T12:50:05.426Z,44.67
2019-04-23T12:51:08.945Z,44.51
2019-04-23T12:51:57.813Z,42.55
2019-04-23T12:53:41.808Z,43.38
2019-04-23T12:54:57.968Z,44.59
2019-04-23T12:56:59.535Z,42.55
2019-04-23T12:58:03.517Z,44.10
2019-04-23T12:58:38.241Z,44.01
2019-04-23T12:59:50.175Z,42.82
2019-04-23T13:00:38.924Z,43.54
2019-04-23T13:01:48.926Z,42.82
2019-04-23T13:03:47.393Z,43.52
2019-04-23T13:05:12.188Z,42.60
2019-04-23T13:05:42.293Z,42.48
2019-04-23T13:06:47.945Z,41.95
2019-04-23T13:08:08.327Z,43.07
2019-04-23T13:08:57.079Z,44.62
2019-04-23T13:09:54.536Z,44.18
2019-04-23T13:10:45.307Z,44.10
2019-04-23T13:11:53.010Z,43.62
2019-04-23T13:12:50.359Z,42.77
2019-04-23T13:14:49.646Z,43.38
2019-04-23T13:15:48.891Z,44.35
2019-04-23T13:16:54.053Z,44.47
2019-04-23T13:17:50.253Z,43.43
2019-04-23T13:21:57.143Z,43.06
2019-04-23T13:23:51.090Z,43.31
2019-04-23T13:24:48.740Z,44.09
2019-04-23T13:25:54.164Z,43.02
2019-04-23T13:26:46.556Z,44.06
2019-04-23T13:27:54.361Z,44.54
2019-04-23T13:28:45.862Z,44.37
2019-04-23T13:29:51.483Z,43.84
2019-04-23T13:31:40.326Z,45.30
2019-04-23T13:32:55.446Z,46.29
2019-04-23T13:33:58.066Z,45.49
2019-04-23T13:35:05.164Z,45.49
2019-04-23T13:36:08.421Z,46.46
2019-04-23T13:36:56.410Z,46.94
2019-04-23T13:37:54.452Z,45.86
2019-04-23T13:39:44.029Z,44.89
2019-04-23T13:41:47.751Z,44.84
2019-04-23T13:42:57.272Z,44.72
2019-04-23T13:43:42.536Z,45.01
2019-04-23T13:44:46.652Z,45.28
2019-04-23T13:46:55.749Z,45.95
2019-04-23T13:47:54.733Z,45.28
2019-04-23T13:48:42.062Z,47.11
2019-04-23T13:49:53.231Z,46.53
2019-04-23T13:51:48.695Z,48.37
2019-04-23T13:54:04.189Z,47.09
2019-04-23T13:55:44.375Z,48.03
2019-04-23T13:58:53.237Z,48.49
2019-04-23T13:59:48.391Z,48.59
2019-04-23T14:00:58.175Z,48.30
2019-04-23T14:01:46.743Z,48.11
2019-04-23T14:03:47.952Z,48.52
2019-04-23T14:04:50.830Z,47.94
2019-04-23T14:05:51.254Z,48.42
2019-04-23T14:06:49.531Z,48.42
2019-04-23T14:08:53.763Z,48.30
2019-04-23T14:09:57.607Z,47.65
2019-04-23T14:10:48.275Z,46.61
2019-04-23T14:11:40.125Z,46.22
2019-04-23T14:12:53.335Z,45.74
2019-04-23T14:14:05.822Z,46.61
2019-04-23T14:15:04.460Z,46.51
2019-04-23T14:15:54.039Z,46.78
2019-04-23T14:17:08.673Z,47.16
2019-04-23T14:18:56.132Z,47.81
2019-04-23T14:19:47.792Z,47.94
2019-04-23T14:20:53.231Z,47.38
2019-04-23T14:21:44.515Z,47.09
2019-04-23T14:24:04.552Z,46.25
2019-04-23T14:26:05.255Z,46.22
2019-04-23T14:27:09.665Z,46.92
2019-04-23T14:28:01.267Z,46.34
2019-04-23T14:28:44.561Z,46.84
2019-04-23T14:29:56.589Z,46.39
2019-04-23T14:30:53.498Z,45.25
2019-04-23T14:31:50.861Z,44.93
2019-04-23T14:33:11.963Z,44.96
2019-04-23T14:34:54.147Z,45.22
2019-04-23T14:35:46.803Z,45.32
2019-04-23T14:36:55.501Z,45.71
2019-04-23T14:38:07.328Z,45.42
2019-04-23T14:38:49.705Z,45.42
2019-04-23T14:39:45.587Z,45.22
2019-04-23T14:40:58.926Z,45.66
2019-04-23T14:42:03.644Z,45.83
2019-04-23T14:43:07.628Z,47.28
2019-04-23T14:43:57.958Z,46.80
2019-04-23T14:44:49.752Z,47.00
2019-04-23T14:46:11.579Z,46.83
2019-04-23T14:46:50.014Z,45.76
2019-04-23T14:49:04.312Z,45.95
2019-04-23T14:49:59.440Z,45.20
2019-04-23T14:51:09.818Z,45.10
2019-04-23T14:52:56.893Z,45.32
2019-04-23T14:53:43.841Z,45.64
2019-04-23T14:55:27.922Z,44.88
2019-04-23T14:56:07.722Z,44.26
2019-04-23T14:56:56.823Z,44.67
2019-04-23T14:58:06.364Z,44.68
2019-04-23T14:59:45.149Z,44.47
2019-04-23T15:00:52.983Z,45.71
2019-04-23T15:01:51.394Z,45.22
2019-04-23T15:02:53.301Z,45.15
2019-04-23T15:03:46.909Z,44.84
2019-04-23T15:04:48.229Z,45.15
2019-04-23T15:05:56.224Z,45.25
2019-04-23T15:06:50.774Z,44.76
2019-04-23T15:08:06.255Z,44.78
2019-04-23T15:09:58.820Z,44.71
2019-04-23T15:11:05.236Z,44.42
2019-04-23T15:11:57.712Z,43.54
2019-04-23T15:14:52.400Z,43.26
2019-04-23T15:15:53.184Z,43.01
2019-04-23T15:17:49.620Z,42.02
2019-04-23T15:20:53.586Z,43.43
2019-04-23T15:21:55.527Z,43.47
2019-04-23T15:23:02.564Z,42.60
2019-04-23T15:24:03.734Z,42.89
2019-04-23T15:24:49.941Z,42.99
2019-04-23T15:26:03.631Z,42.67
2019-04-23T15:28:05.275Z,44.10
2019-04-23T15:28:27.155Z,43.84
2019-04-23T15:29:30.194Z,43.57
2019-04-23T15:30:50.920Z,42.61
2019-04-23T15:31:51.244Z,43.08
2019-04-23T15:32:56.582Z,43.47
2019-04-23T15:33:55.403Z,42.85
2019-04-23T15:34:47.350Z,44.09
2019-04-23T15:38:16.133Z,42.79
2019-04-23T15:38:53.223Z,42.96
2019-04-23T15:39:56.700Z,43.62
2019-04-23T15:42:52.334Z,43.45
2019-04-23T15:43:52.955Z,43.35
2019-04-23T15:44:50.189Z,43.91
2019-04-23T15:45:52.116Z,44.16
2019-04-23T15:46:58.104Z,44.76
2019-04-23T15:47:49.327Z,45.61
2019-04-23T15:48:54.024Z,45.81
2019-04-23T15:49:51.800Z,45.90
2019-04-23T15:52:53.143Z,46.44
2019-04-23T15:53:50.997Z,47.21
2019-04-23T15:54:50.578Z,47.02
2019-04-23T15:55:50.198Z,47.58
2019-04-23T15:56:50.091Z,48.25
2019-04-23T15:58:05.430Z,47.99
2019-04-23T15:59:13.533Z,47.24
2019-04-23T15:59:48.206Z,46.39
2019-04-23T16:00:54.347Z,45.51
2019-04-23T16:01:40.362Z,45.61
2019-04-23T16:02:18.478Z,45.61
2019-04-23T16:03:21.327Z,46.00
2019-04-23T16:04:20.104Z,47.26
2019-04-23T16:05:20.919Z,47.06
2019-04-23T16:06:22.070Z,47.26
2019-04-23T16:07:39.353Z,46.00
2019-04-23T16:08:58.967Z,46.29
2019-04-23T16:09:46.147Z,46.66
2019-04-23T16:11:48.176Z,46.87
2019-04-23T16:12:51.906Z,46.17
2019-04-23T16:14:04.648Z,47.06
2019-04-23T16:14:50.360Z,45.83
2019-04-23T16:15:50.902Z,45.92
2019-04-23T16:17:50.306Z,47.14
2019-04-23T16:18:49.925Z,46.53
2019-04-23T16:19:54.982Z,47.33
2019-04-23T16:22:39.799Z,47.06
2019-04-23T16:23:55.403Z,46.87
2019-04-23T16:24:52.988Z,46.77
2019-04-23T16:25:42.029Z,46.51
2019-04-23T16:27:46.875Z,45.83
2019-04-23T16:29:07.126Z,46.48
2019-04-23T16:30:06.309Z,47.06
2019-04-23T16:30:46.538Z,46.89
2019-04-23T16:31:51.824Z,45.56
2019-04-23T16:32:58.653Z,44.90
2019-04-23T16:33:48.855Z,44.73
2019-04-23T16:34:44.877Z,45.02
2019-04-23T16:35:50.030Z,44.44
2019-04-23T16:36:43.879Z,43.93
2019-04-23T16:37:56.984Z,44.96
2019-04-23T16:38:49.093Z,46.39
2019-04-23T16:39:54.629Z,47.36
2019-04-23T16:40:57.332Z,47.96
2019-04-23T16:41:54.801Z,46.77
2019-04-23T16:42:49.207Z,48.18
2019-04-23T16:43:49.258Z,48.35
2019-04-23T16:45:00.938Z,48.83
2019-04-23T16:46:52.956Z,49.02
2019-04-23T16:47:52.312Z,49.51
2019-04-23T16:49:51.147Z,49.05
2019-04-23T16:51:02.675Z,48.83
2019-04-23T16:51:47.976Z,50.38
2019-04-23T16:53:11.561Z,49.80
2019-04-23T16:53:44.737Z,49.70
2019-04-23T16:54:54.763Z,50.26
2019-04-23T16:55:50.046Z,50.16
2019-04-23T16:57:01.462Z,50.45
2019-04-23T16:58:57.930Z,50.23
2019-04-23T17:00:02.531Z,50.43
2019-04-23T17:01:53.969Z,50.81
2019-04-23T17:02:54.763Z,51.68
2019-04-23T17:03:52.598Z,51.01
2019-04-23T17:04:49.967Z,51.29
2019-04-23T17:05:50.853Z,51.29
2019-04-23T17:06:52.371Z,51.68
2019-04-23T17:07:53.720Z,50.91
2019-04-23T17:09:57.873Z,50.71
2019-04-23T17:11:53.090Z,51.39
2019-04-23T17:12:51.895Z,51.49
2019-04-23T17:13:46.242Z,51.97
2019-04-23T17:14:51.792Z,52.23
2019-04-23T17:15:53.346Z,51.78
2019-04-23T17:17:52.223Z,53.20
2019-04-23T17:18:52.247Z,53.88
2019-04-23T17:19:47.801Z,53.30
2019-04-23T17:20:47.588Z,53.47
2019-04-23T17:21:51.937Z,53.66
2019-04-23T17:22:46.739Z,52.98
2019-04-23T17:24:51.746Z,53.75
2019-04-23T17:25:48.858Z,54.05
2019-04-23T17:27:48.464Z,53.95
2019-04-23T17:28:49.901Z,53.95
2019-04-23T17:30:52.290Z,54.40
2019-04-23T17:31:38.137Z,54.31
2019-04-23T17:32:49.744Z,54.21
2019-04-23T17:34:47.370Z,54.79
2019-04-23T17:36:00.818Z,54.60
2019-04-23T17:36:50.158Z,54.88
2019-04-23T17:37:54.922Z,55.36
2019-04-23T17:39:35.974Z,54.79
2019-04-23T17:39:53.000Z,55.94
2019-04-23T17:40:54.047Z,55.18
2019-04-23T17:42:00.220Z,55.66
2019-04-23T17:42:44.002Z,56.11
2019-04-23T17:43:54.642Z,55.73
2019-04-23T17:45:01.999Z,55.63
2019-04-23T17:45:46.015Z,55.82
2019-04-23T17:46:56.329Z,56.01
2019-04-23T17:47:52.362Z,56.21
2019-04-23T17:48:44.168Z,56.59
2019-04-23T17:49:52.562Z,56.40
2019-04-23T17:50:52.791Z,56.49
2019-04-23T17:51:52.015Z,56.76
2019-04-23T17:52:52.980Z,56.88
2019-04-23T17:53:52.762Z,56.85
2019-04-23T17:54:48.460Z,57.24
2019-04-23T17:55:54.630Z,57.72
2019-04-23T17:56:54.354Z,58.20
2019-04-23T17:57:55.824Z,58.88
2019-04-23T17:58:53.884Z,58.08
2019-04-23T17:59:54.881Z,58.97
2019-04-23T18:00:51.564Z,59.04
2019-04-23T18:01:47.560Z,59.23
2019-04-23T18:02:55.063Z,59.43
2019-04-23T18:04:03.105Z,59.72
2019-04-23T18:05:54.633Z,60.20
2019-04-23T18:07:59.389Z,60.30
2019-04-23T18:08:53.981Z,61.35
2019-04-23T18:09:53.730Z,61.04
2019-04-23T18:10:48.508Z,61.04
2019-04-23T18:11:47.567Z,61.71
2019-04-23T18:14:46.970Z,61.52
2019-04-23T18:15:49.587Z,61.71
2019-04-23T18:16:47.995Z,61.61
2019-04-23T18:17:49.527Z,62.19
2019-04-23T18:18:56.558Z,62.35
2019-04-23T18:19:48.680Z,63.51
2019-04-23T18:20:45.574Z,63.12